sensor_id;sensor_type;location;lat;lon;timestamp;P1;durP1;ratioP1;P2;durP2;ratioP2
14592;SDS011;7383;52.354;9.756;2022-12-07T00:00:52;10.50;;;9.40;;
14592;SDS011;7383;52.354;9.756;2022-12-07T00:03:19;12.38;;;10.20;;
14592;SDS011;7383;52.354;9.756;2022-12-07T00:05:45;11.65;;;10.55;;
14592;SDS011;7383;52.354;9.756;2022-12-07T00:08:12;10.40;;;9.38;;
14592;SDS011;7383;52.354;9.756;2022-12-07T00:10:39;11.52;;;10.32;;
14592;SDS011;7383;52.354;9.756;2022-12-07T00:13:06;11.55;;;9.90;;
14592;SDS011;7383;52.354;9.756;2022-12-07T00:15:33;11.48;;;10.10;;
14592;SDS011;7383;52.354;9.756;2022-12-07T00:17:59;11.57;;;9.75;;
14592;SDS011;7383;52.354;9.756;2022-12-07T00:20:25;12.57;;;10.63;;
14592;SDS011;7383;52.354;9.756;2022-12-07T00:22:52;12.32;;;10.95;;
14592;SDS011;7383;52.354;9.756;2022-12-07T00:25:18;12.48;;;10.95;;
14592;SDS011;7383;52.354;9.756;2022-12-07T00:27:46;14.13;;;11.20;;
14592;SDS011;7383;52.354;9.756;2022-12-07T00:30:12;11.95;;;10.73;;
14592;SDS011;7383;52.354;9.756;2022-12-07T00:32:39;11.00;;;9.90;;
14592;SDS011;7383;52.354;9.756;2022-12-07T00:35:05;12.27;;;10.98;;
14592;SDS011;7383;52.354;9.756;2022-12-07T00:37:32;12.70;;;11.20;;
14592;SDS011;7383;52.354;9.756;2022-12-07T00:39:58;11.57;;;10.20;;
14592;SDS011;7383;52.354;9.756;2022-12-07T00:42:24;12.32;;;10.40;;
14592;SDS011;7383;52.354;9.756;2022-12-07T00:44:52;11.40;;;10.10;;
14592;SDS011;7383;52.354;9.756;2022-12-07T00:47:18;13.40;;;11.57;;
14592;SDS011;7383;52.354;9.756;2022-12-07T00:49:45;12.98;;;11.57;;
14592;SDS011;7383;52.354;9.756;2022-12-07T00:52:11;16.42;;;11.63;;
14592;SDS011;7383;52.354;9.756;2022-12-07T00:54:37;11.00;;;9.68;;
14592;SDS011;7383;52.354;9.756;2022-12-07T00:57:03;11.50;;;10.30;;
14592;SDS011;7383;52.354;9.756;2022-12-07T00:59:30;12.32;;;11.02;;
14592;SDS011;7383;52.354;9.756;2022-12-07T01:01:58;11.38;;;10.10;;
14592;SDS011;7383;52.354;9.756;2022-12-07T01:04:24;11.93;;;9.68;;
14592;SDS011;7383;52.354;9.756;2022-12-07T01:06:50;12.73;;;10.38;;
14592;SDS011;7383;52.354;9.756;2022-12-07T01:09:17;11.20;;;10.00;;
14592;SDS011;7383;52.354;9.756;2022-12-07T01:11:43;10.45;;;9.38;;
14592;SDS011;7383;52.354;9.756;2022-12-07T01:14:09;12.40;;;10.50;;
14592;SDS011;7383;52.354;9.756;2022-12-07T01:16:36;11.40;;;10.20;;
14592;SDS011;7383;52.354;9.756;2022-12-07T01:19:03;11.68;;;10.02;;
14592;SDS011;7383;52.354;9.756;2022-12-07T01:21:31;11.80;;;10.20;;
14592;SDS011;7383;52.354;9.756;2022-12-07T01:24:00;14.80;;;11.32;;
14592;SDS011;7383;52.354;9.756;2022-12-07T01:26:26;15.05;;;12.25;;
14592;SDS011;7383;52.354;9.756;2022-12-07T01:28:53;15.35;;;12.13;;
14592;SDS011;7383;52.354;9.756;2022-12-07T01:31:20;15.40;;;12.57;;
14592;SDS011;7383;52.354;9.756;2022-12-07T01:33:48;12.07;;;10.85;;
14592;SDS011;7383;52.354;9.756;2022-12-07T01:36:17;14.40;;;11.68;;
14592;SDS011;7383;52.354;9.756;2022-12-07T01:38:44;15.40;;;12.95;;
14592;SDS011;7383;52.354;9.756;2022-12-07T01:41:10;14.18;;;12.73;;
14592;SDS011;7383;52.354;9.756;2022-12-07T01:44:06;12.55;;;11.25;;
14592;SDS011;7383;52.354;9.756;2022-12-07T01:46:28;11.65;;;10.50;;
14592;SDS011;7383;52.354;9.756;2022-12-07T01:48:54;13.45;;;12.05;;
14592;SDS011;7383;52.354;9.756;2022-12-07T01:51:22;12.05;;;10.80;;
14592;SDS011;7383;52.354;9.756;2022-12-07T01:53:48;13.98;;;12.48;;
14592;SDS011;7383;52.354;9.756;2022-12-07T01:56:15;13.00;;;11.70;;
14592;SDS011;7383;52.354;9.756;2022-12-07T01:58:42;13.23;;;11.93;;
14592;SDS011;7383;52.354;9.756;2022-12-07T02:01:09;11.63;;;10.52;;
14592;SDS011;7383;52.354;9.756;2022-12-07T02:03:36;11.70;;;10.50;;
14592;SDS011;7383;52.354;9.756;2022-12-07T02:06:04;12.68;;;11.48;;
14592;SDS011;7383;52.354;9.756;2022-12-07T02:08:31;12.32;;;11.10;;
14592;SDS011;7383;52.354;9.756;2022-12-07T02:10:58;11.38;;;10.27;;
14592;SDS011;7383;52.354;9.756;2022-12-07T02:13:25;11.02;;;9.88;;
14592;SDS011;7383;52.354;9.756;2022-12-07T02:18:44;10.10;;;9.15;;
14592;SDS011;7383;52.354;9.756;2022-12-07T02:21:15;11.68;;;10.38;;
14592;SDS011;7383;52.354;9.756;2022-12-07T02:24:02;10.27;;;9.27;;
14592;SDS011;7383;52.354;9.756;2022-12-07T02:26:42;11.15;;;10.05;;
14592;SDS011;7383;52.354;9.756;2022-12-07T02:29:13;10.90;;;9.82;;
14592;SDS011;7383;52.354;9.756;2022-12-07T02:31:42;11.35;;;10.25;;
14592;SDS011;7383;52.354;9.756;2022-12-07T02:34:11;11.55;;;10.45;;
14592;SDS011;7383;52.354;9.756;2022-12-07T02:36:39;11.80;;;10.38;;
14592;SDS011;7383;52.354;9.756;2022-12-07T02:39:07;11.15;;;10.02;;
14592;SDS011;7383;52.354;9.756;2022-12-07T02:41:36;10.52;;;9.50;;
14592;SDS011;7383;52.354;9.756;2022-12-07T02:44:04;11.45;;;10.35;;
14592;SDS011;7383;52.354;9.756;2022-12-07T02:46:36;10.98;;;9.90;;
14592;SDS011;7383;52.354;9.756;2022-12-07T02:49:03;10.45;;;9.48;;
14592;SDS011;7383;52.354;9.756;2022-12-07T02:51:30;11.23;;;10.13;;
14592;SDS011;7383;52.354;9.756;2022-12-07T02:53:56;10.15;;;9.15;;
14592;SDS011;7383;52.354;9.756;2022-12-07T02:56:24;10.65;;;9.68;;
14592;SDS011;7383;52.354;9.756;2022-12-07T02:58:55;11.82;;;10.70;;
14592;SDS011;7383;52.354;9.756;2022-12-07T03:01:26;11.10;;;10.10;;
14592;SDS011;7383;52.354;9.756;2022-12-07T03:03:57;10.40;;;9.30;;
14592;SDS011;7383;52.354;9.756;2022-12-07T03:06:26;11.40;;;10.30;;
14592;SDS011;7383;52.354;9.756;2022-12-07T03:08:56;10.38;;;9.38;;
14592;SDS011;7383;52.354;9.756;2022-12-07T03:11:29;10.57;;;9.48;;
14592;SDS011;7383;52.354;9.756;2022-12-07T03:13:58;11.70;;;10.50;;
14592;SDS011;7383;52.354;9.756;2022-12-07T03:16:26;11.23;;;10.10;;
14592;SDS011;7383;52.354;9.756;2022-12-07T03:18:53;13.10;;;10.65;;
14592;SDS011;7383;52.354;9.756;2022-12-07T03:21:23;9.70;;;8.70;;
14592;SDS011;7383;52.354;9.756;2022-12-07T03:23:51;12.20;;;9.88;;
14592;SDS011;7383;52.354;9.756;2022-12-07T03:26:18;17.17;;;11.73;;
14592;SDS011;7383;52.354;9.756;2022-12-07T03:28:48;20.77;;;12.85;;
14592;SDS011;7383;52.354;9.756;2022-12-07T03:31:17;11.57;;;9.35;;
14592;SDS011;7383;52.354;9.756;2022-12-07T03:33:44;9.27;;;8.23;;
14592;SDS011;7383;52.354;9.756;2022-12-07T03:36:14;15.30;;;11.18;;
14592;SDS011;7383;52.354;9.756;2022-12-07T03:38:44;10.45;;;9.32;;
14592;SDS011;7383;52.354;9.756;2022-12-07T03:41:11;11.18;;;9.13;;
14592;SDS011;7383;52.354;9.756;2022-12-07T03:43:40;13.05;;;9.80;;
14592;SDS011;7383;52.354;9.756;2022-12-07T03:46:09;11.90;;;9.10;;
14592;SDS011;7383;52.354;9.756;2022-12-07T03:48:41;14.90;;;10.63;;
14592;SDS011;7383;52.354;9.756;2022-12-07T03:51:13;12.40;;;8.20;;
14592;SDS011;7383;52.354;9.756;2022-12-07T03:53:44;8.88;;;7.72;;
14592;SDS011;7383;52.354;9.756;2022-12-07T03:56:12;8.95;;;7.95;;
14592;SDS011;7383;52.354;9.756;2022-12-07T03:58:38;8.13;;;7.30;;
14592;SDS011;7383;52.354;9.756;2022-12-07T04:01:06;12.65;;;9.73;;
14592;SDS011;7383;52.354;9.756;2022-12-07T04:03:32;9.00;;;8.07;;
14592;SDS011;7383;52.354;9.756;2022-12-07T04:05:58;9.85;;;8.20;;
14592;SDS011;7383;52.354;9.756;2022-12-07T04:08:25;9.15;;;7.75;;
14592;SDS011;7383;52.354;9.756;2022-12-07T04:10:53;10.52;;;9.02;;
14592;SDS011;7383;52.354;9.756;2022-12-07T04:13:19;9.18;;;7.57;;
14592;SDS011;7383;52.354;9.756;2022-12-07T04:15:45;8.80;;;7.80;;
14592;SDS011;7383;52.354;9.756;2022-12-07T04:18:12;9.10;;;8.20;;
14592;SDS011;7383;52.354;9.756;2022-12-07T04:20:38;9.38;;;8.48;;
14592;SDS011;7383;52.354;9.756;2022-12-07T04:23:04;12.63;;;9.77;;
14592;SDS011;7383;52.354;9.756;2022-12-07T04:25:31;9.70;;;8.40;;
14592;SDS011;7383;52.354;9.756;2022-12-07T04:27:58;9.95;;;8.95;;
14592;SDS011;7383;52.354;9.756;2022-12-07T04:30:25;9.48;;;8.55;;
14592;SDS011;7383;52.354;9.756;2022-12-07T04:32:51;9.27;;;8.38;;
14592;SDS011;7383;52.354;9.756;2022-12-07T04:35:17;9.38;;;8.40;;
14592;SDS011;7383;52.354;9.756;2022-12-07T04:37:44;8.93;;;7.80;;
14592;SDS011;7383;52.354;9.756;2022-12-07T04:40:10;9.70;;;8.70;;
14592;SDS011;7383;52.354;9.756;2022-12-07T04:42:39;10.80;;;9.20;;
14592;SDS011;7383;52.354;9.756;2022-12-07T04:45:07;9.52;;;8.55;;
14592;SDS011;7383;52.354;9.756;2022-12-07T04:47:34;10.25;;;8.30;;
14592;SDS011;7383;52.354;9.756;2022-12-07T04:50:00;9.80;;;7.60;;
14592;SDS011;7383;52.354;9.756;2022-12-07T04:52:26;8.15;;;7.35;;
14592;SDS011;7383;52.354;9.756;2022-12-07T04:54:53;10.48;;;7.68;;
14592;SDS011;7383;52.354;9.756;2022-12-07T04:57:19;8.82;;;7.72;;
14592;SDS011;7383;52.354;9.756;2022-12-07T04:59:45;9.30;;;7.88;;
14592;SDS011;7383;52.354;9.756;2022-12-07T05:02:13;9.35;;;8.40;;
14592;SDS011;7383;52.354;9.756;2022-12-07T05:04:40;11.75;;;9.20;;
14592;SDS011;7383;52.354;9.756;2022-12-07T05:07:06;10.75;;;8.57;;
14592;SDS011;7383;52.354;9.756;2022-12-07T05:09:32;8.50;;;7.38;;
14592;SDS011;7383;52.354;9.756;2022-12-07T05:11:59;9.10;;;7.93;;
14592;SDS011;7383;52.354;9.756;2022-12-07T05:14:25;8.73;;;7.75;;
14592;SDS011;7383;52.354;9.756;2022-12-07T05:16:51;8.15;;;7.25;;
14592;SDS011;7383;52.354;9.756;2022-12-07T05:19:20;9.05;;;7.45;;
14592;SDS011;7383;52.354;9.756;2022-12-07T05:21:46;8.85;;;7.95;;
14592;SDS011;7383;52.354;9.756;2022-12-07T05:24:13;8.35;;;6.75;;
14592;SDS011;7383;52.354;9.756;2022-12-07T05:26:40;8.43;;;7.32;;
14592;SDS011;7383;52.354;9.756;2022-12-07T05:29:06;8.02;;;7.22;;
14592;SDS011;7383;52.354;9.756;2022-12-07T05:31:33;8.82;;;7.75;;
14592;SDS011;7383;52.354;9.756;2022-12-07T05:33:59;8.30;;;6.38;;
14592;SDS011;7383;52.354;9.756;2022-12-07T05:36:27;8.05;;;6.93;;
14592;SDS011;7383;52.354;9.756;2022-12-07T05:38:56;7.85;;;6.97;;
14592;SDS011;7383;52.354;9.756;2022-12-07T05:41:22;8.30;;;6.30;;
14592;SDS011;7383;52.354;9.756;2022-12-07T05:44:06;7.60;;;6.72;;
14592;SDS011;7383;52.354;9.756;2022-12-07T05:46:32;7.68;;;6.22;;
14592;SDS011;7383;52.354;9.756;2022-12-07T05:48:59;8.20;;;6.47;;
14592;SDS011;7383;52.354;9.756;2022-12-07T05:51:27;9.50;;;6.10;;
14592;SDS011;7383;52.354;9.756;2022-12-07T05:53:53;7.13;;;6.43;;
14592;SDS011;7383;52.354;9.756;2022-12-07T05:56:20;7.07;;;5.80;;
14592;SDS011;7383;52.354;9.756;2022-12-07T05:58:46;6.60;;;5.60;;
14592;SDS011;7383;52.354;9.756;2022-12-07T06:01:32;7.40;;;6.15;;
14592;SDS011;7383;52.354;9.756;2022-12-07T06:03:58;8.18;;;6.40;;
14592;SDS011;7383;52.354;9.756;2022-12-07T06:06:25;7.68;;;5.57;;
14592;SDS011;7383;52.354;9.756;2022-12-07T06:08:52;7.63;;;5.78;;
14592;SDS011;7383;52.354;9.756;2022-12-07T06:11:19;5.93;;;5.28;;
14592;SDS011;7383;52.354;9.756;2022-12-07T06:14:05;8.02;;;6.63;;
14592;SDS011;7383;52.354;9.756;2022-12-07T06:16:31;6.75;;;5.53;;
14592;SDS011;7383;52.354;9.756;2022-12-07T06:18:57;9.80;;;5.95;;
14592;SDS011;7383;52.354;9.756;2022-12-07T06:21:24;10.40;;;6.30;;
14592;SDS011;7383;52.354;9.756;2022-12-07T06:23:53;11.40;;;7.83;;
14592;SDS011;7383;52.354;9.756;2022-12-07T06:26:19;9.73;;;6.82;;
14592;SDS011;7383;52.354;9.756;2022-12-07T06:28:46;10.23;;;6.85;;
14592;SDS011;7383;52.354;9.756;2022-12-07T06:31:14;13.80;;;6.28;;
14592;SDS011;7383;52.354;9.756;2022-12-07T06:33:41;6.68;;;5.82;;
14592;SDS011;7383;52.354;9.756;2022-12-07T06:36:07;8.88;;;6.20;;
14592;SDS011;7383;52.354;9.756;2022-12-07T06:38:34;9.88;;;5.90;;
14592;SDS011;7383;52.354;9.756;2022-12-07T06:41:02;11.32;;;6.00;;
14592;SDS011;7383;52.354;9.756;2022-12-07T06:43:28;10.52;;;6.00;;
14592;SDS011;7383;52.354;9.756;2022-12-07T06:45:54;7.20;;;4.85;;
14592;SDS011;7383;52.354;9.756;2022-12-07T06:48:21;11.93;;;6.03;;
14592;SDS011;7383;52.354;9.756;2022-12-07T06:50:47;12.88;;;6.63;;
14592;SDS011;7383;52.354;9.756;2022-12-07T06:53:14;7.10;;;4.80;;
14592;SDS011;7383;52.354;9.756;2022-12-07T06:55:41;5.85;;;4.70;;
14592;SDS011;7383;52.354;9.756;2022-12-07T06:58:08;7.47;;;5.35;;
14592;SDS011;7383;52.354;9.756;2022-12-07T07:00:35;6.28;;;4.85;;
14592;SDS011;7383;52.354;9.756;2022-12-07T07:03:01;6.82;;;4.57;;
14592;SDS011;7383;52.354;9.756;2022-12-07T07:05:27;5.22;;;4.13;;
14592;SDS011;7383;52.354;9.756;2022-12-07T07:07:54;5.88;;;4.38;;
14592;SDS011;7383;52.354;9.756;2022-12-07T07:10:20;5.88;;;4.10;;
14592;SDS011;7383;52.354;9.756;2022-12-07T07:12:46;4.80;;;3.85;;
14592;SDS011;7383;52.354;9.756;2022-12-07T07:15:14;4.45;;;3.35;;
14592;SDS011;7383;52.354;9.756;2022-12-07T07:17:40;3.75;;;3.45;;
14592;SDS011;7383;52.354;9.756;2022-12-07T07:20:07;5.03;;;3.33;;
14592;SDS011;7383;52.354;9.756;2022-12-07T07:22:34;5.65;;;3.65;;
14592;SDS011;7383;52.354;9.756;2022-12-07T07:25:00;5.60;;;3.38;;
14592;SDS011;7383;52.354;9.756;2022-12-07T07:27:26;3.17;;;2.88;;
14592;SDS011;7383;52.354;9.756;2022-12-07T07:29:53;2.97;;;2.67;;
14592;SDS011;7383;52.354;9.756;2022-12-07T07:32:20;4.03;;;3.28;;
14592;SDS011;7383;52.354;9.756;2022-12-07T07:34:47;3.92;;;3.20;;
14592;SDS011;7383;52.354;9.756;2022-12-07T07:37:13;6.82;;;3.28;;
14592;SDS011;7383;52.354;9.756;2022-12-07T07:39:39;3.00;;;2.70;;
14592;SDS011;7383;52.354;9.756;2022-12-07T07:42:06;2.80;;;2.60;;
14592;SDS011;7383;52.354;9.756;2022-12-07T07:44:33;3.42;;;2.40;;
14592;SDS011;7383;52.354;9.756;2022-12-07T07:46:59;2.55;;;2.35;;
14592;SDS011;7383;52.354;9.756;2022-12-07T07:49:27;3.65;;;2.40;;
14592;SDS011;7383;52.354;9.756;2022-12-07T07:51:53;3.10;;;2.33;;
14592;SDS011;7383;52.354;9.756;2022-12-07T07:54:20;2.85;;;2.30;;
14592;SDS011;7383;52.354;9.756;2022-12-07T07:56:52;2.60;;;2.10;;
14592;SDS011;7383;52.354;9.756;2022-12-07T07:59:24;2.40;;;2.20;;
14592;SDS011;7383;52.354;9.756;2022-12-07T08:01:51;3.95;;;2.40;;
14592;SDS011;7383;52.354;9.756;2022-12-07T08:04:17;2.20;;;1.50;;
14592;SDS011;7383;52.354;9.756;2022-12-07T08:06:45;3.15;;;2.35;;
14592;SDS011;7383;52.354;9.756;2022-12-07T08:09:11;1.92;;;1.75;;
14592;SDS011;7383;52.354;9.756;2022-12-07T08:11:38;2.45;;;2.22;;
14592;SDS011;7383;52.354;9.756;2022-12-07T08:14:04;4.03;;;2.22;;
14592;SDS011;7383;52.354;9.756;2022-12-07T08:16:30;1.83;;;1.52;;
14592;SDS011;7383;52.354;9.756;2022-12-07T08:18:57;3.60;;;1.85;;
14592;SDS011;7383;52.354;9.756;2022-12-07T08:21:23;1.85;;;1.55;;
14592;SDS011;7383;52.354;9.756;2022-12-07T08:23:51;2.80;;;1.85;;
14592;SDS011;7383;52.354;9.756;2022-12-07T08:26:17;2.20;;;1.83;;
14592;SDS011;7383;52.354;9.756;2022-12-07T08:28:44;2.75;;;1.80;;
14592;SDS011;7383;52.354;9.756;2022-12-07T08:31:12;3.95;;;1.73;;
14592;SDS011;7383;52.354;9.756;2022-12-07T08:33:40;2.30;;;1.33;;
14592;SDS011;7383;52.354;9.756;2022-12-07T08:36:08;3.38;;;1.67;;
14592;SDS011;7383;52.354;9.756;2022-12-07T08:38:38;2.60;;;1.80;;
14592;SDS011;7383;52.354;9.756;2022-12-07T08:41:09;2.53;;;1.50;;
14592;SDS011;7383;52.354;9.756;2022-12-07T08:43:36;3.70;;;1.73;;
14592;SDS011;7383;52.354;9.756;2022-12-07T08:46:05;1.50;;;1.40;;
14592;SDS011;7383;52.354;9.756;2022-12-07T08:48:32;1.40;;;1.30;;
14592;SDS011;7383;52.354;9.756;2022-12-07T08:51:00;2.25;;;1.55;;
14592;SDS011;7383;52.354;9.756;2022-12-07T08:53:27;3.88;;;1.73;;
14592;SDS011;7383;52.354;9.756;2022-12-07T08:56:04;3.13;;;1.75;;
14592;SDS011;7383;52.354;9.756;2022-12-07T08:58:32;2.33;;;1.40;;
14592;SDS011;7383;52.354;9.756;2022-12-07T09:00:59;1.65;;;1.30;;
14592;SDS011;7383;52.354;9.756;2022-12-07T09:03:25;3.40;;;1.77;;
14592;SDS011;7383;52.354;9.756;2022-12-07T09:05:52;2.63;;;1.60;;
14592;SDS011;7383;52.354;9.756;2022-12-07T09:08:21;3.13;;;1.75;;
14592;SDS011;7383;52.354;9.756;2022-12-07T09:10:48;2.30;;;1.52;;
14592;SDS011;7383;52.354;9.756;2022-12-07T09:13:15;2.15;;;1.38;;
14592;SDS011;7383;52.354;9.756;2022-12-07T09:15:43;2.40;;;1.60;;
14592;SDS011;7383;52.354;9.756;2022-12-07T09:18:09;2.30;;;1.23;;
14592;SDS011;7383;52.354;9.756;2022-12-07T09:20:35;1.83;;;1.50;;
14592;SDS011;7383;52.354;9.756;2022-12-07T09:23:02;1.50;;;1.40;;
14592;SDS011;7383;52.354;9.756;2022-12-07T09:25:28;2.80;;;1.58;;
14592;SDS011;7383;52.354;9.756;2022-12-07T09:27:55;2.55;;;1.75;;
14592;SDS011;7383;52.354;9.756;2022-12-07T09:30:22;1.63;;;1.35;;
14592;SDS011;7383;52.354;9.756;2022-12-07T09:32:49;3.40;;;1.58;;
14592;SDS011;7383;52.354;9.756;2022-12-07T09:35:16;2.00;;;1.40;;
14592;SDS011;7383;52.354;9.756;2022-12-07T09:37:42;3.63;;;1.45;;
14592;SDS011;7383;52.354;9.756;2022-12-07T09:40:09;2.40;;;1.42;;
14592;SDS011;7383;52.354;9.756;2022-12-07T09:42:36;1.38;;;1.05;;
14592;SDS011;7383;52.354;9.756;2022-12-07T09:45:05;2.42;;;1.25;;
14592;SDS011;7383;52.354;9.756;2022-12-07T09:47:32;1.98;;;1.20;;
14592;SDS011;7383;52.354;9.756;2022-12-07T09:50:03;2.50;;;1.10;;
14592;SDS011;7383;52.354;9.756;2022-12-07T09:52:30;1.40;;;1.20;;
14592;SDS011;7383;52.354;9.756;2022-12-07T09:55:00;1.42;;;1.25;;
14592;SDS011;7383;52.354;9.756;2022-12-07T09:57:27;3.05;;;1.17;;
14592;SDS011;7383;52.354;9.756;2022-12-07T09:59:54;2.60;;;1.70;;
14592;SDS011;7383;52.354;9.756;2022-12-07T10:02:34;1.85;;;1.30;;
14592;SDS011;7383;52.354;9.756;2022-12-07T10:05:04;7.30;;;2.63;;
14592;SDS011;7383;52.354;9.756;2022-12-07T10:07:31;2.85;;;1.30;;
14592;SDS011;7383;52.354;9.756;2022-12-07T10:09:57;4.63;;;1.70;;
14592;SDS011;7383;52.354;9.756;2022-12-07T10:12:24;5.13;;;2.03;;
14592;SDS011;7383;52.354;9.756;2022-12-07T10:14:54;4.80;;;2.25;;
14592;SDS011;7383;52.354;9.756;2022-12-07T10:17:32;3.58;;;1.50;;
14592;SDS011;7383;52.354;9.756;2022-12-07T10:20:11;6.80;;;2.17;;
14592;SDS011;7383;52.354;9.756;2022-12-07T10:22:38;3.47;;;1.67;;
14592;SDS011;7383;52.354;9.756;2022-12-07T10:25:20;3.45;;;1.90;;
14592;SDS011;7383;52.354;9.756;2022-12-07T10:27:56;4.35;;;2.30;;
14592;SDS011;7383;52.354;9.756;2022-12-07T10:30:23;4.32;;;2.33;;
14592;SDS011;7383;52.354;9.756;2022-12-07T10:32:52;5.28;;;2.38;;
14592;SDS011;7383;52.354;9.756;2022-12-07T10:35:21;6.63;;;2.65;;
14592;SDS011;7383;52.354;9.756;2022-12-07T10:37:49;7.43;;;2.80;;
14592;SDS011;7383;52.354;9.756;2022-12-07T10:40:27;4.50;;;2.05;;
14592;SDS011;7383;52.354;9.756;2022-12-07T10:43:00;3.75;;;2.10;;
14592;SDS011;7383;52.354;9.756;2022-12-07T10:45:27;1.40;;;1.30;;
14592;SDS011;7383;52.354;9.756;2022-12-07T10:47:55;2.45;;;1.75;;
14592;SDS011;7383;52.354;9.756;2022-12-07T10:50:45;5.18;;;2.30;;
14592;SDS011;7383;52.354;9.756;2022-12-07T10:53:17;3.60;;;1.70;;
14592;SDS011;7383;52.354;9.756;2022-12-07T10:55:55;1.45;;;1.23;;
14592;SDS011;7383;52.354;9.756;2022-12-07T10:58:29;4.57;;;1.45;;
14592;SDS011;7383;52.354;9.756;2022-12-07T11:00:59;1.48;;;1.27;;
14592;SDS011;7383;52.354;9.756;2022-12-07T11:03:33;2.85;;;1.40;;
14592;SDS011;7383;52.354;9.756;2022-12-07T11:06:07;2.33;;;1.45;;
14592;SDS011;7383;52.354;9.756;2022-12-07T11:08:43;3.55;;;1.55;;
14592;SDS011;7383;52.354;9.756;2022-12-07T11:11:13;2.13;;;1.23;;
14592;SDS011;7383;52.354;9.756;2022-12-07T11:13:42;1.90;;;1.30;;
14592;SDS011;7383;52.354;9.756;2022-12-07T11:16:23;2.30;;;1.30;;
14592;SDS011;7383;52.354;9.756;2022-12-07T11:18:57;2.40;;;1.13;;
14592;SDS011;7383;52.354;9.756;2022-12-07T11:21:28;2.03;;;1.30;;
14592;SDS011;7383;52.354;9.756;2022-12-07T11:23:56;2.15;;;1.13;;
14592;SDS011;7383;52.354;9.756;2022-12-07T11:26:30;1.77;;;1.48;;
14592;SDS011;7383;52.354;9.756;2022-12-07T11:29:05;1.65;;;1.33;;
14592;SDS011;7383;52.354;9.756;2022-12-07T11:31:36;3.03;;;1.17;;
14592;SDS011;7383;52.354;9.756;2022-12-07T11:34:04;1.63;;;0.70;;
14592;SDS011;7383;52.354;9.756;2022-12-07T11:36:37;1.13;;;0.45;;
14592;SDS011;7383;52.354;9.756;2022-12-07T11:39:08;0.70;;;0.70;;
14592;SDS011;7383;52.354;9.756;2022-12-07T11:41:37;1.05;;;0.65;;
14592;SDS011;7383;52.354;9.756;2022-12-07T11:44:05;1.20;;;0.85;;
14592;SDS011;7383;52.354;9.756;2022-12-07T11:46:35;1.27;;;1.05;;
14592;SDS011;7383;52.354;9.756;2022-12-07T11:49:07;1.55;;;0.93;;
14592;SDS011;7383;52.354;9.756;2022-12-07T11:51:35;0.63;;;0.63;;
14592;SDS011;7383;52.354;9.756;2022-12-07T11:54:10;0.73;;;0.73;;
14592;SDS011;7383;52.354;9.756;2022-12-07T11:56:38;1.33;;;0.90;;
14592;SDS011;7383;52.354;9.756;2022-12-07T11:59:07;2.38;;;1.05;;
14592;SDS011;7383;52.354;9.756;2022-12-07T12:01:38;1.98;;;1.10;;
14592;SDS011;7383;52.354;9.756;2022-12-07T12:04:07;0.77;;;0.70;;
14592;SDS011;7383;52.354;9.756;2022-12-07T12:06:40;1.83;;;1.35;;
14592;SDS011;7383;52.354;9.756;2022-12-07T12:09:11;1.50;;;1.40;;
14592;SDS011;7383;52.354;9.756;2022-12-07T12:11:43;1.00;;;0.80;;
14592;SDS011;7383;52.354;9.756;2022-12-07T12:14:17;1.33;;;1.00;;
14592;SDS011;7383;52.354;9.756;2022-12-07T12:19:27;2.78;;;1.50;;
14592;SDS011;7383;52.354;9.756;2022-12-07T12:21:56;1.58;;;1.30;;
14592;SDS011;7383;52.354;9.756;2022-12-07T12:24:25;2.80;;;1.50;;
14592;SDS011;7383;52.354;9.756;2022-12-07T12:27:01;3.08;;;1.63;;
14592;SDS011;7383;52.354;9.756;2022-12-07T12:29:31;2.90;;;1.52;;
14592;SDS011;7383;52.354;9.756;2022-12-07T12:32:05;1.92;;;1.45;;
14592;SDS011;7383;52.354;9.756;2022-12-07T12:34:37;2.15;;;1.00;;
14592;SDS011;7383;52.354;9.756;2022-12-07T12:37:13;2.78;;;1.60;;
14592;SDS011;7383;52.354;9.756;2022-12-07T12:42:44;2.45;;;1.30;;
14592;SDS011;7383;52.354;9.756;2022-12-07T12:45:19;2.78;;;1.33;;
14592;SDS011;7383;52.354;9.756;2022-12-07T12:50:31;4.13;;;1.60;;
14592;SDS011;7383;52.354;9.756;2022-12-07T12:53:05;1.55;;;1.35;;
14592;SDS011;7383;52.354;9.756;2022-12-07T12:58:31;3.78;;;1.75;;
14592;SDS011;7383;52.354;9.756;2022-12-07T13:03:51;3.28;;;1.40;;
14592;SDS011;7383;52.354;9.756;2022-12-07T13:06:18;1.95;;;1.33;;
14592;SDS011;7383;52.354;9.756;2022-12-07T13:08:46;3.38;;;1.90;;
14592;SDS011;7383;52.354;9.756;2022-12-07T13:11:16;2.30;;;1.42;;
14592;SDS011;7383;52.354;9.756;2022-12-07T13:13:45;3.42;;;1.35;;
14592;SDS011;7383;52.354;9.756;2022-12-07T13:21:46;4.10;;;1.88;;
14592;SDS011;7383;52.354;9.756;2022-12-07T13:24:15;9.98;;;2.72;;
14592;SDS011;7383;52.354;9.756;2022-12-07T13:26:42;5.68;;;3.13;;
14592;SDS011;7383;52.354;9.756;2022-12-07T13:29:13;3.15;;;1.75;;
14592;SDS011;7383;52.354;9.756;2022-12-07T13:31:40;3.08;;;1.80;;
14592;SDS011;7383;52.354;9.756;2022-12-07T13:36:48;4.05;;;2.03;;
14592;SDS011;7383;52.354;9.756;2022-12-07T13:39:17;5.88;;;2.40;;
14592;SDS011;7383;52.354;9.756;2022-12-07T13:41:46;4.30;;;2.25;;
14592;SDS011;7383;52.354;9.756;2022-12-07T13:44:19;3.38;;;2.05;;
14592;SDS011;7383;52.354;9.756;2022-12-07T13:46:49;8.00;;;2.85;;
14592;SDS011;7383;52.354;9.756;2022-12-07T13:49:19;4.10;;;1.55;;
14592;SDS011;7383;52.354;9.756;2022-12-07T13:51:46;3.85;;;1.73;;
14592;SDS011;7383;52.354;9.756;2022-12-07T13:54:13;2.72;;;1.58;;
14592;SDS011;7383;52.354;9.756;2022-12-07T13:56:47;2.50;;;1.58;;
14592;SDS011;7383;52.354;9.756;2022-12-07T13:59:15;3.75;;;1.70;;
14592;SDS011;7383;52.354;9.756;2022-12-07T14:01:44;8.82;;;3.55;;
14592;SDS011;7383;52.354;9.756;2022-12-07T14:04:18;3.97;;;2.03;;
14592;SDS011;7383;52.354;9.756;2022-12-07T14:06:48;2.17;;;1.20;;
14592;SDS011;7383;52.354;9.756;2022-12-07T14:09:19;2.40;;;1.30;;
14592;SDS011;7383;52.354;9.756;2022-12-07T14:11:49;3.88;;;1.50;;
14592;SDS011;7383;52.354;9.756;2022-12-07T14:14:17;2.80;;;1.55;;
14592;SDS011;7383;52.354;9.756;2022-12-07T14:25:32;1.70;;;1.60;;
14592;SDS011;7383;52.354;9.756;2022-12-07T14:28:38;3.05;;;1.50;;
14592;SDS011;7383;52.354;9.756;2022-12-07T14:31:09;3.90;;;1.70;;
14592;SDS011;7383;52.354;9.756;2022-12-07T14:42:43;2.00;;;1.50;;
14592;SDS011;7383;52.354;9.756;2022-12-07T14:45:13;1.95;;;1.75;;
14592;SDS011;7383;52.354;9.756;2022-12-07T14:47:39;3.85;;;1.27;;
14592;SDS011;7383;52.354;9.756;2022-12-07T14:50:07;2.78;;;1.52;;
14592;SDS011;7383;52.354;9.756;2022-12-07T14:52:34;2.95;;;1.33;;
14592;SDS011;7383;52.354;9.756;2022-12-07T14:55:00;4.15;;;1.70;;
14592;SDS011;7383;52.354;9.756;2022-12-07T14:57:26;2.58;;;1.20;;
14592;SDS011;7383;52.354;9.756;2022-12-07T14:59:54;2.00;;;1.20;;
14592;SDS011;7383;52.354;9.756;2022-12-07T15:02:20;3.47;;;1.40;;
14592;SDS011;7383;52.354;9.756;2022-12-07T15:04:47;2.63;;;1.60;;
14592;SDS011;7383;52.354;9.756;2022-12-07T15:07:22;2.65;;;1.42;;
14592;SDS011;7383;52.354;9.756;2022-12-07T15:10:00;4.30;;;1.80;;
14592;SDS011;7383;52.354;9.756;2022-12-07T15:12:31;2.55;;;1.60;;
14592;SDS011;7383;52.354;9.756;2022-12-07T15:14:59;1.85;;;1.40;;
14592;SDS011;7383;52.354;9.756;2022-12-07T15:17:26;3.45;;;1.50;;
14592;SDS011;7383;52.354;9.756;2022-12-07T15:19:53;2.22;;;1.52;;
14592;SDS011;7383;52.354;9.756;2022-12-07T15:22:23;2.47;;;1.60;;
14592;SDS011;7383;52.354;9.756;2022-12-07T15:24:50;2.33;;;1.40;;
14592;SDS011;7383;52.354;9.756;2022-12-07T15:27:16;3.90;;;2.60;;
14592;SDS011;7383;52.354;9.756;2022-12-07T15:29:43;2.25;;;2.05;;
14592;SDS011;7383;52.354;9.756;2022-12-07T15:32:10;2.15;;;1.50;;
14592;SDS011;7383;52.354;9.756;2022-12-07T15:34:37;2.58;;;1.50;;
14592;SDS011;7383;52.354;9.756;2022-12-07T15:37:03;1.85;;;1.48;;
14592;SDS011;7383;52.354;9.756;2022-12-07T15:39:29;2.20;;;1.77;;
14592;SDS011;7383;52.354;9.756;2022-12-07T15:41:56;3.13;;;1.50;;
14592;SDS011;7383;52.354;9.756;2022-12-07T15:44:22;2.13;;;1.60;;
14592;SDS011;7383;52.354;9.756;2022-12-07T15:47:05;3.22;;;1.60;;